createdAt,value
2018-07-23T00:01:49.561Z,98766.33
2018-07-23T00:04:17.738Z,98768.34
2018-07-23T00:06:45.754Z,98765.31
2018-07-23T00:09:13.655Z,98768.02
2018-07-23T00:11:41.880Z,98771.88
2018-07-23T00:14:09.834Z,98786.48
2018-07-23T00:16:37.920Z,98801.27
2018-07-23T00:19:06.131Z,98801.96
2018-07-23T00:21:33.963Z,98808.98
2018-07-23T00:24:01.845Z,98807.48
2018-07-23T00:26:30.251Z,98809.14
2018-07-23T00:28:58.278Z,98811.19
2018-07-23T00:31:26.491Z,98815.88
2018-07-23T00:33:55.412Z,98817.40
2018-07-23T00:36:23.458Z,98828.97
2018-07-23T00:38:51.557Z,98821.41
2018-07-23T00:41:20.056Z,98835.16
2018-07-23T00:43:48.060Z,98836.34
2018-07-23T00:46:16.917Z,98832.49
2018-07-23T00:48:45.346Z,98828.80
2018-07-23T00:51:13.356Z,98832.84
2018-07-23T00:53:41.374Z,98839.38
2018-07-23T00:56:10.102Z,98838.50
2018-07-23T00:58:38.266Z,98834.33
2018-07-23T01:01:06.395Z,98831.48
2018-07-23T01:03:34.578Z,98827.40
2018-07-23T01:06:02.459Z,98819.00
2018-07-23T01:08:30.495Z,98825.08
2018-07-23T01:10:58.640Z,98814.64
2018-07-23T01:13:26.507Z,98803.59
2018-07-23T01:15:54.482Z,98804.63
2018-07-23T01:18:22.953Z,98797.75
2018-07-23T01:20:50.938Z,98795.17
2018-07-23T01:23:18.946Z,98792.49
2018-07-23T01:25:46.893Z,98786.59
2018-07-23T01:28:15.010Z,98780.56
2018-07-23T01:30:42.988Z,98776.69
2018-07-23T01:33:10.959Z,98775.50
2018-07-23T01:35:38.957Z,98763.28
2018-07-23T01:38:06.999Z,98758.05
2018-07-23T01:40:34.924Z,98752.86
2018-07-23T01:43:02.907Z,98744.16
2018-07-23T01:45:30.854Z,98742.48
2018-07-23T01:47:59.020Z,98736.08
2018-07-23T01:50:26.947Z,98729.38
2018-07-23T01:52:55.000Z,98722.14
2018-07-23T01:55:22.907Z,98721.31
2018-07-23T01:57:50.981Z,98715.58
2018-07-23T02:00:19.091Z,98713.26
2018-07-23T02:02:47.350Z,98706.20
2018-07-23T02:05:15.433Z,98700.83
2018-07-23T02:07:43.485Z,98706.70
2018-07-23T02:10:11.759Z,98696.10
2018-07-23T02:12:39.790Z,98696.78
2018-07-23T02:15:07.885Z,98699.17
2018-07-23T02:17:36.080Z,98688.76
2018-07-23T02:20:04.838Z,98695.31
2018-07-23T02:22:32.890Z,98693.97
2018-07-23T02:25:00.964Z,98695.47
2018-07-23T02:27:29.050Z,98702.19
2018-07-23T02:29:57.050Z,98708.38
2018-07-23T02:32:25.092Z,98702.20
2018-07-23T02:34:54.338Z,98700.33
2018-07-23T02:37:22.346Z,98709.05
2018-07-23T02:39:50.366Z,98706.23
2018-07-23T02:42:18.203Z,98699.98
2018-07-23T02:44:46.090Z,98695.46
2018-07-23T02:47:14.475Z,98687.75
2018-07-23T02:49:42.475Z,98693.61
2018-07-23T02:52:10.561Z,98678.38
2018-07-23T02:54:38.655Z,98675.85
2018-07-23T02:57:06.650Z,98678.86
2018-07-23T02:59:34.779Z,98682.72
2018-07-23T03:02:03.186Z,98690.27
2018-07-23T03:04:31.183Z,98690.27
2018-07-23T03:06:59.120Z,98692.45
2018-07-23T03:09:27.163Z,98695.47
2018-07-23T03:11:54.987Z,98704.70
2018-07-23T03:14:22.899Z,98701.34
2018-07-23T03:16:51.037Z,98700.17
2018-07-23T03:19:19.108Z,98693.27
2018-07-23T03:21:47.162Z,98689.11
2018-07-23T03:24:15.258Z,98689.44
2018-07-23T03:26:43.344Z,98693.62
2018-07-23T03:29:11.410Z,98695.98
2018-07-23T03:31:39.884Z,98693.14
2018-07-23T03:34:07.834Z,98694.81
2018-07-23T03:36:35.670Z,98697.52
2018-07-23T03:41:56.652Z,98702.56
2018-07-23T03:44:24.465Z,98702.72
2018-07-23T03:46:52.334Z,98699.14
2018-07-23T03:49:20.547Z,98688.52
2018-07-23T03:51:48.448Z,98695.70
2018-07-23T03:54:16.474Z,98693.14
2018-07-23T03:56:44.435Z,98697.92
2018-07-23T03:59:12.230Z,98694.79
2018-07-23T04:01:40.115Z,98685.80
2018-07-23T04:04:08.769Z,98693.96
2018-07-23T04:06:36.720Z,98697.77
2018-07-23T04:09:07.199Z,98701.75
2018-07-23T04:11:35.415Z,98701.56
2018-07-23T04:14:03.383Z,98699.61
2018-07-23T04:16:31.203Z,98705.26
2018-07-23T04:18:59.139Z,98709.23
2018-07-23T04:21:27.951Z,98698.34
2018-07-23T04:23:55.812Z,98707.47
2018-07-23T04:26:23.691Z,98707.53
2018-07-23T04:28:51.503Z,98716.00
2018-07-23T04:31:19.362Z,98709.62
2018-07-23T04:33:48.688Z,98700.48
2018-07-23T04:36:17.601Z,98696.34
2018-07-23T04:38:53.951Z,98695.31
2018-07-23T04:41:22.869Z,98696.87
2018-07-23T04:43:50.856Z,98700.33
2018-07-23T04:46:18.696Z,98696.56
2018-07-23T04:48:50.492Z,98690.70
2018-07-23T04:51:21.898Z,98692.67
2018-07-23T04:53:49.869Z,98691.00
2018-07-23T04:56:17.689Z,98691.69
2018-07-23T04:58:45.747Z,98681.05
2018-07-23T05:01:13.631Z,98680.16
2018-07-23T05:03:41.412Z,98673.00
2018-07-23T05:06:09.412Z,98683.52
2018-07-23T05:08:37.207Z,98672.61
2018-07-23T05:11:04.993Z,98670.06
2018-07-23T05:13:32.962Z,98665.31
2018-07-23T05:16:00.743Z,98651.39
2018-07-23T05:18:28.528Z,98651.20
2018-07-23T05:20:56.443Z,98651.95
2018-07-23T05:23:24.331Z,98653.58
2018-07-23T05:25:52.202Z,98648.26
2018-07-23T05:28:20.190Z,98639.03
2018-07-23T05:30:48.115Z,98635.22
2018-07-23T05:33:16.078Z,98638.69
2018-07-23T05:35:43.996Z,98636.17
2018-07-23T05:38:11.878Z,98645.28
2018-07-23T05:40:39.988Z,98629.11
2018-07-23T05:43:08.302Z,98624.55
2018-07-23T05:45:36.141Z,98635.94
2018-07-23T05:48:04.058Z,98633.98
2018-07-23T05:50:32.139Z,98630.67
2018-07-23T05:52:59.950Z,98626.91
2018-07-23T05:55:27.846Z,98634.47
2018-07-23T05:57:56.301Z,98632.99
2018-07-23T06:00:24.113Z,98635.31
2018-07-23T06:02:51.959Z,98631.29
2018-07-23T06:05:19.878Z,98635.68
2018-07-23T06:07:47.691Z,98638.45
2018-07-23T06:10:15.552Z,98637.00
2018-07-23T06:12:43.498Z,98638.55
2018-07-23T06:15:11.576Z,98629.27
2018-07-23T06:17:39.517Z,98637.19
2018-07-23T06:20:08.286Z,98629.73
2018-07-23T06:22:36.183Z,98629.75
2018-07-23T06:25:04.391Z,98624.88
2018-07-23T06:27:32.302Z,98616.46
2018-07-23T06:30:00.194Z,98623.14
2018-07-23T06:32:28.003Z,98619.70
2018-07-23T06:34:55.971Z,98628.66
2018-07-23T06:37:23.899Z,98622.61
2018-07-23T06:39:51.728Z,98622.94
2018-07-23T06:42:19.569Z,98620.32
2018-07-23T06:44:47.482Z,98623.15
2018-07-23T06:47:15.357Z,98613.66
2018-07-23T06:49:43.392Z,98613.12
2018-07-23T06:52:11.169Z,98615.83
2018-07-23T06:54:39.011Z,98612.92
2018-07-23T06:57:07.003Z,98608.98
2018-07-23T06:59:35.566Z,98606.04
2018-07-23T07:02:03.722Z,98602.08
2018-07-23T07:04:32.118Z,98599.56
2018-07-23T07:07:00.070Z,98589.55
2018-07-23T07:09:27.967Z,98583.30
2018-07-23T07:11:55.887Z,98583.80
2018-07-23T07:14:23.739Z,98578.59
2018-07-23T07:16:51.551Z,98583.80
2018-07-23T07:19:19.618Z,98564.69
2018-07-23T07:21:47.470Z,98564.34
2018-07-23T07:24:15.310Z,98561.83
2018-07-23T07:26:43.270Z,98566.72
2018-07-23T07:29:11.191Z,98567.53
2018-07-23T07:31:38.983Z,98564.93
2018-07-23T07:34:06.815Z,98575.85
2018-07-23T07:36:34.755Z,98571.33
2018-07-23T07:39:03.069Z,98569.00
2018-07-23T07:41:31.302Z,98573.97
2018-07-23T07:43:59.123Z,98581.02
2018-07-23T07:46:27.058Z,98566.24
2018-07-23T07:48:55.310Z,98569.70
2018-07-23T07:51:23.126Z,98560.70
2018-07-23T07:53:50.862Z,98555.30
2018-07-23T07:56:19.095Z,98555.53
2018-07-23T07:58:46.865Z,98552.78
2018-07-23T08:01:14.678Z,98553.12
2018-07-23T08:03:42.613Z,98555.03
2018-07-23T08:06:10.459Z,98561.60
2018-07-23T08:08:38.346Z,98559.97
2018-07-23T08:11:06.694Z,98558.38
2018-07-23T08:13:34.588Z,98558.83
2018-07-23T08:16:02.496Z,98549.87
2018-07-23T08:18:30.555Z,98553.73
2018-07-23T08:20:58.420Z,98549.64
2018-07-23T08:23:26.306Z,98554.21
2018-07-23T08:25:54.368Z,98546.11
2018-07-23T08:28:22.134Z,98554.21
2018-07-23T08:30:50.117Z,98547.45
2018-07-23T08:33:18.033Z,98547.38
2018-07-23T08:35:45.917Z,98534.83
2018-07-23T08:38:13.806Z,98533.00
2018-07-23T08:40:42.091Z,98520.38
2018-07-23T08:43:09.940Z,98514.70
2018-07-23T08:45:38.060Z,98526.95
2018-07-23T08:48:06.142Z,98514.67
2018-07-23T08:50:34.243Z,98519.62
2018-07-23T08:53:02.075Z,98514.30
2018-07-23T08:55:30.025Z,98511.52
2018-07-23T08:57:57.909Z,98505.90
2018-07-23T09:00:25.802Z,98512.38
2018-07-23T09:02:54.329Z,98514.16
2018-07-23T09:05:22.356Z,98517.47
2018-07-23T09:07:50.355Z,98507.19
2018-07-23T09:10:18.316Z,98505.70
2018-07-23T09:12:46.166Z,98504.19
2018-07-23T09:15:14.066Z,98505.95
2018-07-23T09:17:42.231Z,98502.59
2018-07-23T09:20:10.100Z,98505.61
2018-07-23T09:22:37.983Z,98499.56
2018-07-23T09:25:06.011Z,98491.39
2018-07-23T09:27:33.995Z,98496.01
2018-07-23T09:30:01.905Z,98483.80
2018-07-23T09:32:29.741Z,98486.53
2018-07-23T09:34:57.631Z,98471.94
2018-07-23T09:37:25.651Z,98464.09
2018-07-23T09:39:54.621Z,98465.75
2018-07-23T09:42:22.688Z,98465.35
2018-07-23T09:44:50.639Z,98454.84
2018-07-23T09:47:18.544Z,98440.83
2018-07-23T09:49:46.378Z,98449.30
2018-07-23T09:52:14.195Z,98438.55
2018-07-23T09:54:42.536Z,98441.48
2018-07-23T09:57:10.325Z,98432.61
2018-07-23T09:59:38.235Z,98426.88
2018-07-23T10:02:06.410Z,98425.13
2018-07-23T10:04:34.352Z,98417.24
2018-07-23T10:07:02.201Z,98409.17
2018-07-23T10:09:30.140Z,98405.00
2018-07-23T10:11:58.111Z,98400.39
2018-07-23T10:14:25.990Z,98399.52
2018-07-23T10:16:54.568Z,98402.59
2018-07-23T10:19:22.436Z,98396.75
2018-07-23T10:21:50.376Z,98395.76
2018-07-23T10:24:18.727Z,98399.34
2018-07-23T10:26:46.614Z,98390.47
2018-07-23T10:29:14.389Z,98390.66
2018-07-23T10:31:42.264Z,98383.30
2018-07-23T10:34:10.058Z,98369.63
2018-07-23T10:36:37.904Z,98364.03
2018-07-23T10:39:08.198Z,98360.54
2018-07-23T12:07:12.686Z,98282.19
2018-07-23T12:09:40.390Z,98277.69
2018-07-23T12:12:08.093Z,98289.59
2018-07-23T12:14:36.434Z,98296.62
2018-07-23T12:17:04.339Z,98297.44
2018-07-23T12:19:32.035Z,98299.70
2018-07-23T12:21:59.813Z,98298.41
2018-07-23T12:24:27.535Z,98306.12
2018-07-23T12:26:55.275Z,98299.33
2018-07-23T12:29:23.397Z,98296.15
2018-07-23T12:31:51.163Z,98294.64
2018-07-23T12:34:18.978Z,98301.97
2018-07-23T12:36:46.749Z,98299.20
2018-07-23T12:39:14.449Z,98299.95
2018-07-23T12:41:42.367Z,98293.67
2018-07-23T12:44:10.725Z,98288.17
2018-07-23T12:46:38.600Z,98289.79
2018-07-23T12:49:06.574Z,98294.06
2018-07-23T12:51:34.326Z,98285.03
2018-07-23T12:54:02.293Z,98270.36
2018-07-23T12:56:30.034Z,98268.55
2018-07-23T12:58:57.819Z,98274.55
2018-07-23T13:01:25.493Z,98274.20
2018-07-23T13:03:53.255Z,98292.34
2018-07-23T13:06:21.529Z,98301.46
2018-07-23T13:08:49.358Z,98313.30
2018-07-23T13:11:17.066Z,98302.80
2018-07-23T13:13:45.174Z,98309.67
2018-07-23T13:16:12.973Z,98321.55
2018-07-23T13:18:40.710Z,98323.47
2018-07-23T13:21:09.479Z,98318.27
2018-07-23T13:23:37.331Z,98316.41
2018-07-23T13:26:05.330Z,98320.81
2018-07-23T13:28:33.457Z,98316.83
2018-07-23T13:31:01.177Z,98329.23
2018-07-23T13:33:28.834Z,98342.07
2018-07-23T13:35:57.109Z,98349.02
2018-07-23T13:38:24.960Z,98355.25
2018-07-23T13:40:52.553Z,98357.99
2018-07-23T13:43:20.766Z,98368.28
2018-07-23T13:45:48.536Z,98368.46
2018-07-23T13:48:16.278Z,98375.70
2018-07-23T13:50:44.571Z,98383.00
2018-07-23T13:53:12.338Z,98381.65
2018-07-23T13:55:40.107Z,98396.45
2018-07-23T13:58:07.880Z,98401.72
2018-07-23T14:00:35.582Z,98403.25
2018-07-23T14:03:03.334Z,98407.14
2018-07-23T14:05:33.331Z,98405.69
2018-07-23T14:08:01.074Z,98405.84
2018-07-23T14:10:28.750Z,98397.56
2018-07-23T14:12:56.541Z,98403.65
2018-07-23T14:15:24.273Z,98409.19
2018-07-23T14:17:52.043Z,98403.92
2018-07-23T14:20:19.811Z,98404.55
2018-07-23T14:22:47.503Z,98399.98
2018-07-23T14:25:15.189Z,98416.02
2018-07-23T14:27:42.954Z,98418.00
2018-07-23T14:30:10.714Z,98424.57
2018-07-23T14:32:38.484Z,98428.31
2018-07-23T14:35:06.383Z,98421.05
2018-07-23T14:37:34.246Z,98412.36
2018-07-23T14:40:01.962Z,98409.86
2018-07-23T14:42:30.139Z,98413.70
2018-07-23T14:44:57.970Z,98399.89
2018-07-23T14:47:25.807Z,98415.14
2018-07-23T14:49:53.587Z,98408.80
2018-07-23T14:52:21.350Z,98412.45
2018-07-23T14:54:49.133Z,98406.89
2018-07-23T14:57:16.940Z,98401.78
2018-07-23T14:59:44.662Z,98397.32
2018-07-23T15:02:12.407Z,98394.64
2018-07-23T15:04:40.686Z,98392.52
2018-07-23T15:07:08.685Z,98398.05
2018-07-23T15:09:36.961Z,98383.41
2018-07-23T15:12:04.868Z,98393.11
2018-07-23T15:14:32.598Z,98396.16
2018-07-23T15:17:00.499Z,98396.30
2018-07-23T15:19:28.343Z,98395.30
2018-07-23T15:21:56.121Z,98402.69
2018-07-23T15:24:24.130Z,98413.05
2018-07-23T15:26:52.285Z,98410.97
2018-07-23T15:29:20.288Z,98413.57
2018-07-23T15:31:48.312Z,98406.81
2018-07-23T15:34:16.701Z,98402.58
2018-07-23T15:36:44.454Z,98398.03
2018-07-23T15:39:12.132Z,98394.23
2018-07-23T15:41:39.949Z,98393.92
2018-07-23T15:44:07.874Z,98402.87
2018-07-23T15:46:35.657Z,98405.70
2018-07-23T15:49:03.631Z,98399.16
2018-07-23T15:51:31.341Z,98405.22
2018-07-23T15:53:59.200Z,98403.44
2018-07-23T15:56:27.052Z,98403.74
2018-07-23T15:58:54.752Z,98410.61
2018-07-23T16:01:22.486Z,98415.09
2018-07-23T16:03:50.397Z,98421.45
2018-07-23T16:06:18.160Z,98427.51
2018-07-23T16:08:45.885Z,98438.02
2018-07-23T16:11:14.118Z,98440.92
2018-07-23T16:13:41.883Z,98443.84
2018-07-23T16:16:09.668Z,98447.27
2018-07-23T16:18:37.838Z,98450.71
2018-07-23T16:21:05.615Z,98465.09
2018-07-23T16:23:33.237Z,98472.05
2018-07-23T16:26:01.063Z,98474.02
2018-07-23T16:28:28.781Z,98476.41
2018-07-23T16:30:56.531Z,98471.98
2018-07-23T16:33:24.183Z,98468.89
2018-07-23T16:35:51.866Z,98467.51
2018-07-23T16:38:19.634Z,98469.97
2018-07-23T16:40:47.792Z,98471.01
2018-07-23T16:43:15.568Z,98466.54
2018-07-23T16:45:43.324Z,98472.05
2018-07-23T16:48:11.292Z,98476.63
2018-07-23T16:50:39.112Z,98474.30
2018-07-23T16:53:07.514Z,98476.58
2018-07-23T16:55:35.391Z,98474.13
2018-07-23T16:58:03.169Z,98479.84
2018-07-23T17:00:30.966Z,98481.19
2018-07-23T17:02:59.205Z,98483.22
2018-07-23T17:05:27.012Z,98481.22
2018-07-23T17:07:54.940Z,98474.45
2018-07-23T17:10:22.911Z,98471.11
2018-07-23T17:12:50.686Z,98472.30
2018-07-23T17:15:18.493Z,98467.20
2018-07-23T17:17:46.347Z,98469.11
2018-07-23T17:20:14.169Z,98461.27
2018-07-23T17:22:41.998Z,98462.34
2018-07-23T17:25:09.909Z,98448.23
2018-07-23T17:27:37.726Z,98443.47
2018-07-23T17:30:05.656Z,98446.15
2018-07-23T17:32:33.729Z,98449.22
2018-07-23T17:35:01.605Z,98444.28
2018-07-23T17:37:29.524Z,98447.95
2018-07-23T17:39:57.639Z,98445.17
2018-07-23T17:42:25.542Z,98455.77
2018-07-23T17:44:53.584Z,98452.23
2018-07-23T17:47:21.533Z,98460.11
2018-07-23T17:49:49.248Z,98455.97
2018-07-23T17:52:17.165Z,98459.38
2018-07-23T17:54:45.162Z,98465.44
2018-07-23T17:57:13.010Z,98479.23
2018-07-23T17:59:40.913Z,98478.17
2018-07-23T18:02:09.015Z,98483.44
2018-07-23T18:04:36.915Z,98477.79
2018-07-23T18:07:04.816Z,98479.72
2018-07-23T18:09:32.767Z,98474.88
2018-07-23T18:12:00.690Z,98479.13
2018-07-23T18:14:28.631Z,98478.66
2018-07-23T18:16:56.530Z,98489.59
2018-07-23T18:19:24.282Z,98499.19
2018-07-23T18:21:52.146Z,98491.81
2018-07-23T18:24:20.159Z,98505.02
2018-07-23T18:26:47.935Z,98518.52
2018-07-23T18:29:15.803Z,98512.03
2018-07-23T18:31:43.978Z,98518.04
2018-07-23T18:34:11.859Z,98524.77
2018-07-23T18:36:39.658Z,98533.25
2018-07-23T18:39:09.737Z,98529.45
2018-07-23T18:41:37.680Z,98538.72
2018-07-23T18:44:05.506Z,98553.22
2018-07-23T18:46:33.531Z,98549.89
2018-07-23T18:49:25.725Z,98548.27
2018-07-23T18:51:54.708Z,98547.62
2018-07-23T18:54:23.857Z,98548.17
2018-07-23T18:56:57.237Z,98549.25
2018-07-23T18:59:25.044Z,98561.95
2018-07-23T19:01:53.869Z,98559.59
2018-07-23T19:04:21.715Z,98556.91
2018-07-23T19:06:49.920Z,98543.09
2018-07-23T19:09:18.755Z,98532.89
2018-07-23T19:11:47.765Z,98526.73
2018-07-23T19:14:16.054Z,98531.54
2018-07-23T19:16:44.274Z,98526.22
2018-07-23T19:19:12.358Z,98525.02
2018-07-23T19:21:40.301Z,98520.30
2018-07-23T19:24:08.115Z,98515.61
2018-07-23T19:26:36.183Z,98511.23
2018-07-23T19:29:04.235Z,98512.22
2018-07-23T19:31:32.075Z,98506.52
2018-07-23T19:34:01.513Z,98505.17
2018-07-23T19:36:29.718Z,98498.79
2018-07-23T19:38:57.867Z,98510.69
2018-07-23T19:41:26.524Z,98495.30
2018-07-23T19:43:54.548Z,98494.28
2018-07-23T19:46:22.632Z,98491.72
2018-07-23T19:48:50.704Z,98497.45
2018-07-23T19:51:18.835Z,98491.41
2018-07-23T19:53:47.070Z,98493.28
2018-07-23T19:56:15.879Z,98491.11
2018-07-23T19:58:43.783Z,98482.52
2018-07-23T20:01:11.718Z,98486.75
2018-07-23T20:03:39.550Z,98481.23
2018-07-23T20:06:07.347Z,98477.73
2018-07-23T20:08:35.259Z,98480.77
2018-07-23T20:11:03.198Z,98484.30
2018-07-23T20:13:31.115Z,98487.79
2018-07-23T20:15:58.844Z,98486.78
2018-07-23T20:18:26.938Z,98478.55
2018-07-23T20:20:54.895Z,98472.38
2018-07-23T20:23:23.136Z,98462.64
2018-07-23T20:25:51.043Z,98460.84
2018-07-23T20:28:18.944Z,98457.66
2018-07-23T20:30:46.822Z,98456.66
2018-07-23T20:33:15.185Z,98455.51
2018-07-23T20:35:43.086Z,98461.52
2018-07-23T20:38:10.982Z,98464.53
2018-07-23T20:40:38.844Z,98476.45
2018-07-23T20:43:06.716Z,98474.27
2018-07-23T20:45:34.469Z,98481.30
2018-07-23T20:48:02.775Z,98481.97
2018-07-23T20:50:31.613Z,98479.95
2018-07-23T20:52:59.521Z,98484.30
2018-07-23T20:55:27.609Z,98477.27
2018-07-23T20:57:55.447Z,98480.28
2018-07-23T21:00:23.456Z,98484.15
2018-07-23T21:02:51.678Z,98480.29
2018-07-23T21:05:19.542Z,98473.41
2018-07-23T21:07:47.410Z,98473.60
2018-07-23T21:10:15.411Z,98471.73
2018-07-23T21:12:43.283Z,98479.80
2018-07-23T21:15:11.091Z,98481.14
2018-07-23T21:17:41.204Z,98484.84
2018-07-23T21:20:09.538Z,98484.84
2018-07-23T21:22:37.741Z,98489.38
2018-07-23T21:25:06.419Z,98474.80
2018-07-23T21:27:34.438Z,98481.81
2018-07-23T21:30:02.407Z,98486.18
2018-07-23T21:32:30.728Z,98482.97
2018-07-23T21:34:58.468Z,98478.05
2018-07-23T21:37:26.332Z,98480.23
2018-07-23T21:39:54.268Z,98475.84
2018-07-23T21:42:22.064Z,98480.03
2018-07-23T21:44:49.977Z,98474.02
2018-07-23T21:47:18.100Z,98470.34
2018-07-23T21:49:45.963Z,98470.68
2018-07-23T21:52:13.848Z,98467.81
2018-07-23T21:54:41.772Z,98471.02
2018-07-23T21:57:09.712Z,98468.65
2018-07-23T21:59:37.559Z,98459.61
2018-07-23T22:02:06.144Z,98451.53
2018-07-23T22:04:33.927Z,98456.75
2018-07-23T22:07:01.795Z,98454.90
2018-07-23T22:09:29.833Z,98459.76
2018-07-23T22:11:57.599Z,98462.98
2018-07-23T22:14:25.378Z,98464.67
2018-07-23T22:16:53.216Z,98463.98
2018-07-23T22:19:21.041Z,98461.84
2018-07-23T22:21:48.912Z,98460.31
2018-07-23T22:24:16.853Z,98458.62
2018-07-23T22:26:44.699Z,98443.38
2018-07-23T22:29:12.534Z,98440.18
2018-07-23T22:31:40.428Z,98443.84
2018-07-23T22:34:08.372Z,98435.48
2018-07-23T22:36:36.188Z,98441.22
2018-07-23T22:39:07.485Z,98446.38
2018-07-23T22:41:35.296Z,98445.87
2018-07-23T22:44:04.125Z,98449.42
2018-07-23T22:46:32.004Z,98442.20
2018-07-23T22:49:00.866Z,98443.04
2018-07-23T22:51:28.786Z,98436.48
2018-07-23T22:53:56.722Z,98432.45
2018-07-23T22:56:24.689Z,98440.86
2018-07-23T22:58:52.404Z,98433.11
2018-07-23T23:01:20.932Z,98427.23
2018-07-23T23:03:48.830Z,98424.08
2018-07-23T23:06:16.720Z,98421.57
2018-07-23T23:08:44.797Z,98419.05
2018-07-23T23:11:12.530Z,98421.34
2018-07-23T23:13:40.349Z,98419.20
2018-07-23T23:16:08.663Z,98425.05
2018-07-23T23:18:36.581Z,98419.67
2018-07-23T23:21:04.503Z,98421.02
2018-07-23T23:23:32.306Z,98419.68
2018-07-23T23:26:00.151Z,98425.88
2018-07-23T23:28:28.016Z,98424.69
2018-07-23T23:30:55.815Z,98411.95
2018-07-23T23:33:23.636Z,98412.28
2018-07-23T23:35:51.545Z,98409.59
2018-07-23T23:38:19.616Z,98404.55
2018-07-23T23:40:47.419Z,98399.87
2018-07-23T23:43:15.168Z,98400.70
2018-07-23T23:45:43.003Z,98395.67
2018-07-23T23:48:10.803Z,98396.36
2018-07-23T23:50:38.622Z,98398.70
2018-07-23T23:53:06.429Z,98398.02
2018-07-23T23:55:34.290Z,98398.05
2018-07-23T23:58:02.105Z,98391.85
